Time;durP1;ratioP1;P1;durP2;ratioP2;P2;SDS_P1;SDS_P2;PMS_P1;PMS_P2;Temp;Humidity;BMP_temperature;BMP_pressure;BME280_temperature;BME280_humidity;BME280_pressure;Samples;Min_cycle;Max_cycle;Signal;HPM_P1;HPM_P2
2023/09/19 00:00:21;;;;;;;3.30;1.10;;;;;;;21.39;75.71;99959.75;5065581;28;20179;-66
2023/09/19 00:02:52;;;;;;;2.43;0.90;;;;;;;21.35;75.93;99973.28;5063795;28;20440;-66
2023/09/19 00:05:17;;;;;;;2.47;1.10;;;;;;;21.17;76.72;99971.59;5061153;28;20776;-66
2023/09/19 00:07:44;;;;;;;4.53;1.07;;;;;;;21.37;75.57;99964.25;5045033;28;20429;-66
2023/09/19 00:10:10;;;;;;;2.87;1.33;;;;;;;21.28;75.59;99967.50;5053766;28;20374;-66
2023/09/19 00:12:35;;;;;;;5.03;1.57;;;;;;;21.24;76.33;99963.81;5054350;28;20451;-66
2023/09/19 00:15:05;;;;;;;3.87;1.50;;;;;;;21.27;75.82;99968.72;5043683;28;20199;-67
2023/09/19 00:17:31;;;;;;;4.27;1.10;;;;;;;21.57;74.59;99971.25;5079999;28;20299;-67
2023/09/19 00:19:57;;;;;;;2.17;1.17;;;;;;;21.58;74.32;99973.69;5070083;28;20471;-66
2023/09/19 00:22:23;;;;;;;9.20;1.10;;;;;;;21.63;74.43;99972.47;5061506;28;20409;-66
2023/09/19 00:24:48;;;;;;;3.73;1.10;;;;;;;21.75;73.54;99969.22;5073075;28;20181;-66
2023/09/19 00:27:14;;;;;;;4.40;1.10;;;;;;;21.48;74.78;99974.50;5071602;28;20421;-65
2023/09/19 00:29:39;;;;;;;2.70;1.10;;;;;;;21.64;74.26;99974.13;5063417;28;20190;-65
2023/09/19 00:32:07;;;;;;;2.97;1.30;;;;;;;21.45;75.39;99975.34;5070212;28;20179;-66
2023/09/19 00:34:34;;;;;;;4.03;1.10;;;;;;;21.53;74.49;99971.22;5053879;28;20189;-65
2023/09/19 00:36:59;;;;;;;4.13;1.20;;;;;;;21.31;74.92;99978.19;5054033;28;20496;-66
2023/09/19 00:39:25;;;;;;;2.20;1.10;;;;;;;21.76;73.52;99968.81;5073781;28;20436;-66
2023/09/19 00:41:51;;;;;;;3.20;1.20;;;;;;;21.71;73.39;99971.25;5063643;28;20178;-66
2023/09/19 00:44:17;;;;;;;3.30;1.03;;;;;;;21.70;73.62;99973.34;5076941;28;20175;-66
2023/09/19 00:46:43;;;;;;;2.67;1.30;;;;;;;21.57;74.54;99980.66;5062181;28;20179;-66
2023/09/19 00:49:09;;;;;;;1.90;0.93;;;;;;;21.58;74.19;99985.19;5053205;28;20504;-65
2023/09/19 00:51:35;;;;;;;2.10;0.97;;;;;;;;;;5067823;28;20429;-66
2023/09/19 00:54:01;;;;;;;8.47;1.33;;;;;;;21.03;76.06;99975.22;5062865;28;20985;-66
2023/09/19 00:56:26;;;;;;;5.10;1.30;;;;;;;20.73;77.80;99983.28;5078737;28;20530;-65
2023/09/19 00:58:52;;;;;;;2.00;1.00;;;;;;;20.85;76.73;99980.09;5053905;28;20186;-65
2023/09/19 01:01:17;;;;;;;3.23;1.10;;;;;;;20.79;76.75;99987.44;5086097;28;20179;-66
2023/09/19 01:03:43;;;;;;;5.30;1.30;;;;;;;20.62;77.19;99991.03;5063416;28;20205;-66
2023/09/19 01:06:08;;;;;;;2.90;0.80;;;;;;;20.76;77.88;99988.25;5055409;28;20179;-66
2023/09/19 01:08:36;;;;;;;2.13;0.80;;;;;;;21.06;76.17;100000.28;5054280;28;20174;-65
2023/09/19 01:11:20;;;;;;;4.60;1.10;;;;;;;20.94;76.42;99997.78;5079751;28;20288;-66
2023/09/19 01:14:18;;;;;;;7.43;1.30;;;;;;;21.08;76.49;99994.94;5068590;28;20467;-67
2023/09/19 01:16:50;;;;;;;3.30;0.90;;;;;;;21.33;74.77;100007.31;5042889;28;21001;-66
2023/09/19 01:19:34;;;;;;;3.80;1.30;;;;;;;20.94;77.55;100008.44;5054100;28;20883;-66
2023/09/19 01:22:06;;;;;;;3.27;1.10;;;;;;;21.08;76.69;100009.28;5077750;28;20415;-65
2023/09/19 01:24:50;;;;;;;5.53;1.03;;;;;;;21.51;75.82;100013.91;5087296;28;20915;-65
2023/09/19 01:27:59;;;;;;;3.30;1.20;;;;;;;21.74;74.35;100008.66;5082893;28;20418;-66
2023/09/19 01:30:27;;;;;;;5.13;1.30;;;;;;;21.43;75.59;99997.09;5055164;28;20486;-66
2023/09/19 01:32:52;;;;;;;4.03;1.20;;;;;;;21.61;74.29;100004.47;5054152;28;20420;-65
2023/09/19 01:35:18;;;;;;;14.63;1.30;;;;;;;21.72;73.68;100008.22;5085918;28;20525;-65
2023/09/19 01:37:44;;;;;;;3.50;1.10;;;;;;;21.83;73.78;100005.34;5051924;28;20267;-65
2023/09/19 01:40:11;;;;;;;10.60;1.00;;;;;;;21.91;73.05;100006.97;5082485;28;20187;-65
2023/09/19 01:42:57;;;;;;;4.97;1.13;;;;;;;21.79;73.91;100010.28;5080222;28;20186;-66
2023/09/19 01:45:55;;;;;;;3.73;1.60;;;;;;;21.84;72.99;100009.88;5055253;28;20477;-65
2023/09/19 01:48:32;;;;;;;3.00;0.90;;;;;;;21.94;72.90;100011.91;5066770;28;20440;-65
2023/09/19 01:51:01;;;;;;;3.73;1.10;;;;;;;21.84;72.76;100019.31;5074915;28;20416;-65
2023/09/19 01:53:51;;;;;;;2.87;1.20;;;;;;;21.93;72.46;100022.59;5069813;28;20497;-65
2023/09/19 01:56:22;;;;;;;6.10;1.30;;;;;;;21.73;73.44;100024.22;5082545;28;20457;-65
2023/09/19 01:58:49;;;;;;;4.33;1.40;;;;;;;21.57;73.71;100031.56;5039236;28;20911;-65
2023/09/19 02:01:20;;;;;;;5.13;1.20;;;;;;;21.77;73.31;100030.78;5075814;28;20409;-66
2023/09/19 02:03:46;;;;;;;2.67;0.83;;;;;;;21.85;73.05;100034.50;5055525;28;20428;-65
2023/09/19 02:06:15;;;;;;;3.47;0.90;;;;;;;21.88;72.74;100034.50;5071871;28;20464;-65
2023/09/19 02:08:41;;;;;;;4.50;1.10;;;;;;;21.92;72.88;100038.19;5080913;28;20465;-65
2023/09/19 02:11:06;;;;;;;5.93;1.57;;;;;;;21.95;72.43;100037.38;5051264;28;20488;-65
2023/09/19 02:13:32;;;;;;;6.60;1.20;;;;;;;22.00;72.08;100044.75;5089416;28;20230;-65
2023/09/19 02:15:57;;;;;;;6.07;1.20;;;;;;;21.99;71.80;100052.59;5059544;28;20203;-65
2023/09/19 02:18:22;;;;;;;3.10;1.10;;;;;;;22.01;72.13;100055.03;5090038;28;20174;-65
2023/09/19 02:20:48;;;;;;;6.53;1.00;;;;;;;21.94;72.56;100055.88;5059676;28;20187;-65
2023/09/19 02:23:13;;;;;;;3.50;1.00;;;;;;;21.98;71.80;100059.53;5055617;28;20563;-65
2023/09/19 02:25:40;;;;;;;3.50;1.30;;;;;;;21.97;72.31;100055.03;5070124;28;20242;-65
2023/09/19 02:28:06;;;;;;;2.70;1.10;;;;;;;22.01;71.65;100067.34;5088764;28;20174;-65
2023/09/19 02:30:31;;;;;;;3.20;0.90;;;;;;;21.81;72.66;100059.53;5073625;28;20450;-65
2023/09/19 02:32:57;;;;;;;4.20;1.03;;;;;;;21.83;72.73;100063.63;5069431;28;20167;-65
2023/09/19 02:35:22;;;;;;;3.40;1.30;;;;;;;21.89;72.82;100064.91;5053122;28;20744;-65
2023/09/19 02:37:48;;;;;;;3.03;0.90;;;;;;;21.82;73.08;100056.25;5036211;28;20175;-65
2023/09/19 02:40:20;;;;;;;3.93;1.87;;;;;;;21.83;72.97;100051.34;5068031;28;20174;-65
2023/09/19 02:42:49;;;;;;;4.37;1.00;;;;;;;21.72;72.87;100045.56;5059244;28;20187;-65
2023/09/19 02:45:17;;;;;;;5.83;1.37;;;;;;;21.77;72.78;100050.91;5071749;28;21307;-65
2023/09/19 02:47:44;;;;;;;4.03;1.30;;;;;;;21.89;72.51;100053.41;5051587;28;20457;-65
2023/09/19 02:50:13;;;;;;;7.23;2.07;;;;;;;21.62;73.59;100057.84;5070825;28;20789;-65
2023/09/19 02:52:40;;;;;;;6.43;2.00;;;;;;;21.83;72.64;100063.63;5082852;28;20493;-65
2023/09/19 02:55:09;;;;;;;3.70;1.40;;;;;;;21.84;72.93;100061.59;5034348;28;20928;-65
2023/09/19 02:57:34;;;;;;;3.50;1.10;;;;;;;21.61;73.72;100061.94;5073999;28;20877;-65
2023/09/19 03:00:00;;;;;;;6.00;1.57;;;;;;;21.51;74.82;100065.63;5051436;28;20437;-65
2023/09/19 03:02:27;;;;;;;4.07;1.10;;;;;;;21.79;73.52;100062.84;5052045;28;20278;-65
2023/09/19 03:04:53;;;;;;;3.87;1.07;;;;;;;21.87;73.23;100061.59;5068729;28;20437;-65
2023/09/19 03:07:18;;;;;;;6.03;1.33;;;;;;;21.81;73.54;100069.00;5069157;28;20511;-65
2023/09/19 03:09:44;;;;;;;4.50;1.40;;;;;;;21.87;73.02;100058.72;5050778;28;20191;-65
2023/09/19 03:12:10;;;;;;;2.70;1.00;;;;;;;21.97;73.26;100062.84;5067056;28;20183;-65
2023/09/19 03:14:36;;;;;;;4.77;1.20;;;;;;;22.00;72.83;100079.25;5060248;28;20736;-65
2023/09/19 03:17:04;;;;;;;3.80;1.40;;;;;;;21.98;72.86;100079.66;5050786;28;20482;-65
2023/09/19 03:19:30;;;;;;;5.47;1.67;;;;;;;22.02;72.75;100083.38;5066586;28;20151;-66
2023/09/19 03:21:57;;;;;;;6.37;1.70;;;;;;;21.91;73.49;100081.72;5053601;28;20503;-65
2023/09/19 03:24:23;;;;;;;3.90;1.57;;;;;;;21.96;73.42;100095.69;5048632;28;20249;-66
2023/09/19 03:26:48;;;;;;;8.43;2.20;;;;;;;21.85;73.44;100089.09;5047684;28;20430;-66
2023/09/19 03:29:15;;;;;;;6.50;1.83;;;;;;;21.53;75.36;100088.19;5048703;28;20406;-65
2023/09/19 03:31:41;;;;;;;4.47;1.47;;;;;;;21.61;75.08;100076.31;5060403;28;20178;-65
2023/09/19 03:34:06;;;;;;;4.20;1.50;;;;;;;21.81;74.05;100089.09;5052934;28;20599;-65
2023/09/19 03:36:34;;;;;;;5.00;1.30;;;;;;;21.65;74.94;100082.88;5051038;28;20282;-65
2023/09/19 03:39:00;;;;;;;5.00;1.93;;;;;;;21.74;74.05;100080.47;5051749;28;20661;-65
2023/09/19 03:41:26;;;;;;;4.20;1.30;;;;;;;21.75;74.01;100079.25;5063568;28;20421;-65
2023/09/19 03:43:51;;;;;;;4.87;1.20;;;;;;;21.84;73.61;100076.81;5048847;28;20186;-65
2023/09/19 03:46:17;;;;;;;3.40;1.17;;;;;;;21.68;74.72;100069.75;5061054;28;20313;-65
2023/09/19 03:48:42;;;;;;;2.87;1.10;;;;;;;21.51;75.56;100074.25;5050155;28;20655;-65
2023/09/19 03:51:08;;;;;;;5.57;1.60;;;;;;;21.39;76.44;100068.03;5050923;28;20240;-65
2023/09/19 03:53:33;;;;;;;3.87;1.60;;;;;;;21.64;75.33;100066.88;5057455;28;20191;-65
2023/09/19 03:56:00;;;;;;;5.70;1.50;;;;;;;21.65;75.18;100077.16;5053191;28;20742;-65
2023/09/19 03:58:25;;;;;;;5.57;1.57;;;;;;;21.68;75.57;100076.34;5050334;28;20176;-65
2023/09/19 04:00:56;;;;;;;2.77;1.33;;;;;;;21.82;73.82;100084.19;5048713;28;20430;-64
2023/09/19 04:03:21;;;;;;;3.17;1.10;;;;;;;21.90;73.45;100092.41;5054681;28;20634;-65
2023/09/19 04:05:50;;;;;;;5.70;1.53;;;;;;;21.94;73.09;100095.28;5068660;28;20421;-64
2023/09/19 04:08:15;;;;;;;3.33;1.40;;;;;;;21.81;74.11;100100.59;5067364;28;20237;-64
2023/09/19 04:10:45;;;;;;;4.30;1.20;;;;;;;21.91;73.06;100111.28;5057063;28;20467;-64
2023/09/19 04:13:10;;;;;;;6.03;1.37;;;;;;;21.96;73.12;100102.25;5066710;28;20983;-64
2023/09/19 04:15:37;;;;;;;6.43;1.60;;;;;;;21.42;75.67;100116.06;5030982;28;20469;-64
2023/09/19 04:18:03;;;;;;;5.50;1.73;;;;;;;21.42;75.92;100104.59;5072617;28;20714;-65
2023/09/19 04:20:28;;;;;;;6.30;1.60;;;;;;;21.53;75.05;100116.94;5082923;28;20428;-64
2023/09/19 04:22:54;;;;;;;6.10;1.93;;;;;;;21.58;74.34;100105.03;5071249;28;20421;-64
2023/09/19 04:25:20;;;;;;;2.97;1.70;;;;;;;21.74;73.70;100112.09;5081090;28;20178;-64
2023/09/19 04:27:46;;;;;;;6.23;1.83;;;;;;;21.79;72.37;100110.84;5079448;28;20255;-65
2023/09/19 04:30:12;;;;;;;7.50;1.70;;;;;;;21.75;72.40;100112.91;5055156;28;20433;-64
2023/09/19 04:32:41;;;;;;;6.30;1.50;;;;;;;21.77;71.89;100119.88;5071208;28;20701;-64
2023/09/19 04:35:08;;;;;;;5.33;1.67;;;;;;;21.73;71.46;100124.78;5078994;28;20428;-64
2023/09/19 04:37:39;;;;;;;3.70;1.47;;;;;;;21.65;72.18;100122.28;5073249;28;20432;-64
2023/09/19 04:40:10;;;;;;;5.00;1.30;;;;;;;21.79;71.36;100120.31;5073496;28;20409;-64
2023/09/19 04:42:35;;;;;;;4.90;1.63;;;;;;;21.79;71.39;100126.06;5062020;28;20432;-64
2023/09/19 04:45:01;;;;;;;1.93;1.23;;;;;;;21.79;70.80;100137.56;5069963;28;20495;-64
2023/09/19 04:47:26;;;;;;;4.50;1.90;;;;;;;21.78;70.75;100138.75;5064636;28;20839;-64
2023/09/19 04:49:52;;;;;;;2.73;1.23;;;;;;;21.76;70.56;100138.38;5071854;28;20179;-64
2023/09/19 04:52:17;;;;;;;5.27;1.53;;;;;;;21.76;70.55;100149.84;5055827;28;20202;-64
2023/09/19 04:54:42;;;;;;;5.47;1.70;;;;;;;21.76;70.27;100146.16;5076350;28;20217;-64
2023/09/19 04:57:08;;;;;;;7.00;1.57;;;;;;;21.76;70.34;100155.59;5087621;28;20243;-64
2023/09/19 04:59:33;;;;;;;4.77;1.90;;;;;;;21.79;69.85;100159.72;5089961;28;20581;-64
2023/09/19 05:01:59;;;;;;;4.50;1.80;;;;;;;21.82;70.10;100158.91;5073613;28;20182;-65
2023/09/19 05:04:24;;;;;;;5.50;1.77;;;;;;;21.79;69.93;100171.22;5053099;28;20252;-64
2023/09/19 05:06:50;;;;;;;2.77;1.40;;;;;;;21.79;69.87;100168.34;5073584;28;20178;-64
2023/09/19 05:09:19;;;;;;;4.17;1.87;;;;;;;21.82;70.18;100176.97;5071020;28;20236;-64
2023/09/19 05:11:44;;;;;;;4.50;1.60;;;;;;;21.72;70.50;100183.50;5086741;28;20427;-65
2023/09/19 05:14:11;;;;;;;3.50;1.80;;;;;;;21.80;69.97;100178.59;5071256;28;20464;-64
2023/09/19 05:16:36;;;;;;;8.57;2.07;;;;;;;21.86;70.46;100183.56;5066334;28;20735;-65
2023/09/19 05:19:02;;;;;;;4.57;1.77;;;;;;;21.81;69.96;100188.88;5072147;28;20417;-64
2023/09/19 05:21:30;;;;;;;4.20;1.67;;;;;;;21.87;70.36;100190.13;5052462;28;20216;-64
2023/09/19 05:23:56;;;;;;;4.10;1.87;;;;;;;21.92;69.86;100186.88;5064775;28;20649;-64
2023/09/19 05:26:21;;;;;;;4.00;2.00;;;;;;;21.90;70.42;100195.88;5070739;28;20429;-64
2023/09/19 05:28:49;;;;;;;7.93;1.70;;;;;;;21.94;69.65;100202.47;5086472;28;20228;-64
2023/09/19 05:31:16;;;;;;;4.73;2.17;;;;;;;21.95;70.05;100197.53;5069352;28;20654;-64
2023/09/19 05:33:42;;;;;;;7.23;1.70;;;;;;;21.91;70.34;100193.81;5051676;28;20393;-64
2023/09/19 05:36:10;;;;;;;6.77;2.00;;;;;;;21.91;70.18;100193.81;5073338;28;20530;-65
2023/09/19 05:38:36;;;;;;;6.83;1.57;;;;;;;21.75;70.46;100194.19;5070518;28;20159;-65
2023/09/19 05:41:02;;;;;;;6.63;1.50;;;;;;;21.86;70.30;100192.19;5058660;28;20436;-65
2023/09/19 05:43:27;;;;;;;6.40;2.50;;;;;;;21.92;70.14;100198.38;5083814;28;20436;-65
2023/09/19 05:45:56;;;;;;;6.27;1.93;;;;;;;21.89;70.62;100197.13;5070404;28;20155;-64
2023/09/19 05:48:22;;;;;;;7.60;1.77;;;;;;;21.78;71.02;100196.25;5054834;28;20252;-66
2023/09/19 05:50:48;;;;;;;4.17;1.60;;;;;;;21.87;70.71;100195.88;5055099;28;20552;-64
2023/09/19 05:53:14;;;;;;;10.83;2.00;;;;;;;21.93;70.68;100211.50;5090690;28;20173;-65
2023/09/19 05:55:40;;;;;;;3.97;1.70;;;;;;;21.92;70.22;100216.41;5068492;28;20456;-65
2023/09/19 05:58:05;;;;;;;4.40;1.37;;;;;;;21.93;70.12;100214.38;5075692;28;20167;-65
2023/09/19 06:00:31;;;;;;;5.20;1.37;;;;;;;21.94;70.55;100218.88;5019656;28;20645;-65
2023/09/19 06:02:57;;;;;;;3.83;2.00;;;;;;;21.93;70.19;100217.25;5078606;28;20179;-65
2023/09/19 06:05:24;;;;;;;5.23;1.73;;;;;;;21.93;70.32;100215.19;5054641;28;20437;-65
2023/09/19 06:07:50;;;;;;;5.40;2.30;;;;;;;21.93;70.43;100218.06;5035751;28;20566;-65
2023/09/19 06:10:17;;;;;;;10.47;2.93;;;;;;;21.93;70.20;100214.38;5071686;28;20888;-65
2023/09/19 06:12:45;;;;;;;5.37;1.70;;;;;;;21.94;69.93;100222.59;5041460;28;20424;-65
2023/09/19 06:15:18;;;;;;;3.47;2.00;;;;;;;21.95;70.03;100218.50;5069888;28;20465;-65
2023/09/19 06:17:48;;;;;;;14.20;2.13;;;;;;;21.96;70.08;100225.03;5067931;28;20453;-65
2023/09/19 06:20:14;;;;;;;8.83;1.83;;;;;;;21.97;70.38;100227.53;5054738;28;20465;-65
2023/09/19 06:22:41;;;;;;;5.30;1.43;;;;;;;21.99;69.93;100232.88;5071255;28;20424;-65
2023/09/19 06:25:07;;;;;;;4.10;1.87;;;;;;;21.99;70.55;100236.56;5054017;28;20416;-65
2023/09/19 06:27:32;;;;;;;5.43;1.87;;;;;;;22.00;70.49;100234.50;5083235;28;20467;-65
2023/09/19 06:29:58;;;;;;;5.97;2.03;;;;;;;22.00;70.40;100240.25;5071452;28;20171;-65
2023/09/19 06:32:27;;;;;;;3.80;1.70;;;;;;;22.01;70.09;100248.47;5067464;28;20178;-65
2023/09/19 06:34:54;;;;;;;6.93;1.40;;;;;;;21.99;70.82;100250.97;5088047;28;20228;-65
2023/09/19 06:37:20;;;;;;;6.40;1.50;;;;;;;21.99;70.58;100248.09;5071736;28;20495;-65
2023/09/19 06:39:47;;;;;;;8.00;1.70;;;;;;;21.99;70.66;100253.00;5087478;28;20432;-65
2023/09/19 06:42:13;;;;;;;4.93;1.73;;;;;;;22.02;71.02;100249.31;5078538;28;20216;-65
2023/09/19 06:44:39;;;;;;;5.57;1.53;;;;;;;22.00;70.97;100246.84;5052187;28;20445;-65
2023/09/19 06:47:06;;;;;;;10.10;1.97;;;;;;;22.01;70.88;100247.66;5062149;28;20649;-65
2023/09/19 06:49:32;;;;;;;3.53;1.50;;;;;;;22.02;71.07;100237.81;5081010;28;20243;-65
2023/09/19 06:51:57;;;;;;;4.77;1.70;;;;;;;22.02;70.78;100243.56;5079907;28;20896;-65
2023/09/19 06:54:23;;;;;;;9.43;1.77;;;;;;;21.97;71.35;100247.63;5027525;28;20304;-65
2023/09/19 06:56:48;;;;;;;4.30;1.73;;;;;;;22.00;71.11;100249.72;5061340;28;20182;-65
2023/09/19 06:59:14;;;;;;;5.40;2.00;;;;;;;22.00;71.18;100255.47;5034590;28;20191;-65
2023/09/19 07:01:41;;;;;;;3.57;1.70;;;;;;;21.99;71.60;100259.56;5069128;28;20170;-65
2023/09/19 07:04:06;;;;;;;4.07;1.50;;;;;;;21.60;74.42;100261.44;5078085;28;20186;-65
2023/09/19 07:06:31;;;;;;;3.83;1.53;;;;;;;21.67;75.04;100264.31;5052073;28;20440;-65
2023/09/19 07:08:57;;;;;;;4.57;2.03;;;;;;;21.84;75.42;100263.63;5079013;28;20175;-66
2023/09/19 07:11:23;;;;;;;3.50;1.97;;;;;;;21.65;76.71;100261.03;5050377;28;20213;-65
2023/09/19 07:13:48;;;;;;;6.07;2.00;;;;;;;21.66;77.62;100259.81;5059525;28;20219;-65
2023/09/19 07:16:27;;;;;;;5.80;2.03;;;;;;;21.90;77.53;100255.41;5055647;28;20260;-65
2023/09/19 07:18:53;;;;;;;6.90;2.27;;;;;;;21.44;78.74;100257.22;5043177;28;20533;-65
2023/09/19 07:21:19;;;;;;;11.80;2.27;;;;;;;21.72;77.65;100258.22;5059026;28;20941;-65
2023/09/19 07:23:45;;;;;;;7.43;2.20;;;;;;;21.60;78.29;100255.69;5047817;28;20461;-65
2023/09/19 07:26:10;;;;;;;7.37;2.80;;;;;;;21.94;80.62;100259.97;5051820;28;20638;-65
2023/09/19 07:28:36;;;;;;;5.10;2.43;;;;;;;21.97;79.70;100258.34;5061798;28;20198;-65
2023/09/19 07:31:03;;;;;;;8.70;2.40;;;;;;;21.55;80.45;100258.09;5048076;28;20184;-65
2023/09/19 07:33:28;;;;;;;4.93;1.73;;;;;;;21.37;79.16;100269.50;5052420;28;20652;-65
2023/09/19 07:35:54;;;;;;;7.83;2.07;;;;;;;21.48;77.69;100263.81;5062390;28;20472;-65
2023/09/19 07:38:21;;;;;;;6.90;1.93;;;;;;;21.03;78.62;100270.88;5059305;28;20229;-64
2023/09/19 07:40:46;;;;;;;3.90;1.80;;;;;;;21.34;78.86;100272.34;5050376;28;20444;-67
2023/09/19 07:43:12;;;;;;;5.60;1.77;;;;;;;21.69;78.73;100264.78;5056917;28;20950;-66
2023/09/19 07:45:37;;;;;;;5.50;1.80;;;;;;;21.30;79.39;100271.50;5050451;28;20176;-66
2023/09/19 07:48:06;;;;;;;7.10;2.30;;;;;;;21.51;78.04;100275.31;5055422;28;20290;-65
2023/09/19 07:50:33;;;;;;;7.13;1.80;;;;;;;21.88;77.15;100275.13;5054445;28;20313;-65
2023/09/19 07:52:58;;;;;;;4.90;1.70;;;;;;;21.80;75.50;100294.41;5039250;28;20438;-65
2023/09/19 07:55:25;;;;;;;9.03;2.13;;;;;;;21.67;75.24;100295.94;5062030;28;20426;-66
2023/09/19 07:57:51;;;;;;;4.50;1.83;;;;;;;21.54;76.09;100290.94;5061925;28;20669;-65
2023/09/19 08:00:17;;;;;;;7.37;2.30;;;;;;;21.55;76.86;100299.16;5063651;28;20884;-66
2023/09/19 08:02:42;;;;;;;3.97;2.10;;;;;;;21.73;76.31;100291.47;5063635;28;20432;-65
2023/09/19 08:05:11;;;;;;;5.73;2.00;;;;;;;21.70;75.85;100295.16;5058829;28;20642;-65
2023/09/19 08:07:37;;;;;;;9.50;2.50;;;;;;;21.83;74.15;100295.63;5035354;28;20180;-65
2023/09/19 08:10:04;;;;;;;5.33;2.10;;;;;;;21.64;73.97;100305.38;5061379;28;20546;-65
2023/09/19 08:12:30;;;;;;;5.13;1.57;;;;;;;21.58;75.16;100303.28;5064627;28;20518;-65
2023/09/19 08:14:55;;;;;;;3.30;1.20;;;;;;;21.53;73.92;100318.03;5066897;28;20468;-65
2023/09/19 08:17:22;;;;;;;3.03;1.63;;;;;;;21.57;73.58;100308.19;5059872;28;20578;-65
2023/09/19 08:19:52;;;;;;;4.07;1.67;;;;;;;21.61;72.31;100317.66;5064240;28;20179;-65
2023/09/19 08:22:18;;;;;;;13.40;1.90;;;;;;;21.47;72.72;100303.19;5066803;28;20436;-65
2023/09/19 08:24:44;;;;;;;2.37;1.17;;;;;;;21.73;72.02;100305.84;5057570;28;20944;-64
2023/09/19 08:27:10;;;;;;;3.93;1.60;;;;;;;21.95;70.73;100306.78;5054791;28;20433;-64
2023/09/19 08:29:36;;;;;;;6.47;1.60;;;;;;;21.88;70.66;100316.19;5055027;28;20191;-64
2023/09/19 08:32:01;;;;;;;7.80;1.83;;;;;;;21.88;70.08;100301.81;5055979;28;20428;-65
2023/09/19 08:34:27;;;;;;;5.23;1.53;;;;;;;21.92;70.58;100304.72;5067807;28;20198;-65
2023/09/19 08:36:58;;;;;;;6.70;1.50;;;;;;;21.72;70.15;100312.81;5068854;28;20692;-65
2023/09/19 08:39:24;;;;;;;5.07;1.73;;;;;;;21.70;69.53;100318.16;5070789;28;20712;-65
2023/09/19 08:41:49;;;;;;;5.20;1.70;;;;;;;21.77;70.09;100321.06;5069524;28;20475;-64
2023/09/19 08:44:15;;;;;;;7.93;2.00;;;;;;;21.75;69.99;100320.66;5048807;28;20195;-64
2023/09/19 08:46:41;;;;;;;5.83;1.70;;;;;;;21.71;68.33;100313.22;5071596;28;20175;-64
2023/09/19 08:49:58;;;;;;;2.80;1.33;;;;;;;21.92;68.61;100321.97;5070914;28;20190;-64
2023/09/19 08:52:27;;;;;;;3.93;1.50;;;;;;;21.93;68.78;100312.91;5039901;28;20532;-65
2023/09/19 08:54:53;;;;;;;5.10;1.90;;;;;;;21.93;68.74;100310.03;5058961;28;20803;-65
2023/09/19 08:57:21;;;;;;;4.80;1.80;;;;;;;21.93;67.32;100317.88;5049484;28;20537;-64
2023/09/19 08:59:48;;;;;;;3.80;1.33;;;;;;;21.97;67.91;100321.59;5051869;28;20495;-64
2023/09/19 09:02:14;;;;;;;3.40;1.43;;;;;;;21.82;66.77;100323.53;5051469;28;20435;-65
2023/09/19 09:04:40;;;;;;;2.63;1.30;;;;;;;21.89;67.31;100320.72;5051089;28;20506;-65
2023/09/19 09:07:16;;;;;;;3.17;1.20;;;;;;;21.78;65.21;100325.56;5058913;28;20425;-64
2023/09/19 09:09:42;;;;;;;4.50;1.63;;;;;;;21.72;65.97;100324.31;5065856;28;20551;-64
2023/09/19 09:12:12;;;;;;;6.30;1.57;;;;;;;21.82;66.35;100325.63;5054037;28;20908;-64
2023/09/19 09:14:38;;;;;;;4.50;1.60;;;;;;;21.88;64.62;100329.75;5065623;28;20269;-64
2023/09/19 09:17:03;;;;;;;4.80;1.50;;;;;;;21.93;64.66;100333.03;5070669;28;20875;-64
2023/09/19 09:19:31;;;;;;;5.07;1.40;;;;;;;21.95;65.20;100327.72;5071412;28;20634;-64
2023/09/19 09:22:08;;;;;;;3.17;1.10;;;;;;;21.95;64.52;100330.59;5067811;28;20183;-64
2023/09/19 09:24:36;;;;;;;2.47;1.47;;;;;;;21.96;63.93;100329.38;5055481;28;20425;-64
2023/09/19 09:27:08;;;;;;;3.17;1.13;;;;;;;21.87;64.10;100317.41;5055651;28;21226;-64
2023/09/19 09:29:41;;;;;;;4.30;1.90;;;;;;;21.80;64.04;100323.13;5070776;28;20432;-64
2023/09/19 09:32:22;;;;;;;2.93;1.30;;;;;;;21.77;62.90;100315.31;5054544;28;20802;-65
2023/09/19 09:34:53;;;;;;;4.80;1.43;;;;;;;21.84;62.73;100315.38;5069648;28;20812;-64
2023/09/19 09:37:19;;;;;;;3.27;1.00;;;;;;;21.86;61.74;100324.41;5070543;28;20467;-64
2023/09/19 09:39:56;;;;;;;11.13;1.80;;;;;;;21.84;61.70;100315.38;5080841;28;20476;-65
2023/09/19 09:42:32;;;;;;;11.73;2.37;;;;;;;21.86;60.89;100321.53;5066783;28;20470;-64
2023/09/19 09:45:48;;;;;;;4.10;1.67;;;;;;;21.96;61.30;100314.16;5043493;28;20423;-64
2023/09/19 09:48:18;;;;;;;5.90;1.50;;;;;;;21.97;61.05;100315.84;5073705;28;20433;-64
2023/09/19 09:50:55;;;;;;;3.40;1.10;;;;;;;21.99;61.01;100316.25;5079044;28;20915;-64
2023/09/19 09:53:28;;;;;;;3.80;1.47;;;;;;;21.94;59.67;100316.63;5052444;28;20866;-64
2023/09/19 09:56:18;;;;;;;5.27;1.30;;;;;;;21.95;60.01;100310.47;5074606;28;20469;-64
2023/09/19 09:58:52;;;;;;;3.17;1.33;;;;;;;21.72;58.90;100323.50;5072637;28;20413;-64
2023/09/19 10:01:17;;;;;;;5.30;1.37;;;;;;;21.86;58.88;100320.69;5065164;28;20808;-64
2023/09/19 10:03:47;;;;;;;4.30;1.90;;;;;;;21.81;58.67;100321.91;5069727;28;20516;-64
2023/09/19 10:06:26;;;;;;;4.67;1.67;;;;;;;21.77;59.01;100314.50;5086676;28;20179;-64
2023/09/19 10:09:11;;;;;;;3.30;1.37;;;;;;;21.78;58.67;100314.06;5087793;28;21116;-64
2023/09/19 10:11:43;;;;;;;6.00;1.80;;;;;;;21.82;58.74;100323.53;5086856;28;20480;-64
2023/09/19 10:14:10;;;;;;;4.73;1.93;;;;;;;21.90;58.31;100322.38;5068125;28;20574;-64
2023/09/19 10:16:36;;;;;;;3.93;1.70;;;;;;;21.81;58.83;100323.94;5050446;28;20516;-65
2023/09/19 10:19:02;;;;;;;3.20;1.13;;;;;;;21.79;58.57;100315.75;5060449;28;20472;-65
2023/09/19 10:21:29;;;;;;;3.80;1.70;;;;;;;21.84;58.10;100312.50;5069971;28;20414;-65
2023/09/19 10:23:58;;;;;;;6.67;1.73;;;;;;;21.75;57.27;100317.78;5068819;28;20202;-64
2023/09/19 10:26:24;;;;;;;3.53;1.50;;;;;;;21.90;57.99;100312.91;5053426;28;20433;-64
2023/09/19 10:28:50;;;;;;;3.30;1.40;;;;;;;21.91;58.26;100306.75;5070210;28;20460;-64
2023/09/19 10:31:19;;;;;;;4.23;1.40;;;;;;;21.94;57.81;100299.38;5051394;28;20417;-64
2023/09/19 10:33:45;;;;;;;4.53;1.40;;;;;;;21.98;58.77;100303.91;5052414;28;20263;-64
2023/09/19 10:36:12;;;;;;;3.83;1.60;;;;;;;21.90;57.67;100296.50;5070839;28;20822;-64
2023/09/19 10:38:37;;;;;;;3.10;1.40;;;;;;;22.01;58.52;100297.34;5068983;28;20194;-64
2023/09/19 10:41:02;;;;;;;5.00;1.40;;;;;;;22.07;58.39;100298.59;5041423;28;20440;-65
2023/09/19 10:43:32;;;;;;;4.73;1.40;;;;;;;22.13;58.59;100299.06;5072470;28;20178;-64
2023/09/19 10:46:01;;;;;;;4.53;1.70;;;;;;;22.06;56.98;100285.47;5073819;28;20190;-64
2023/09/19 10:48:28;;;;;;;6.20;1.67;;;;;;;22.08;57.03;100299.44;5050523;28;20429;-65
2023/09/19 10:51:04;;;;;;;3.73;1.50;;;;;;;22.01;56.81;100288.72;5076876;28;20421;-64
2023/09/19 10:53:31;;;;;;;4.43;1.43;;;;;;;21.95;56.82;100301.84;5057416;28;20417;-64
2023/09/19 10:55:59;;;;;;;3.60;1.33;;;;;;;22.00;57.11;100307.22;5052370;28;20839;-64
2023/09/19 10:58:29;;;;;;;4.00;1.60;;;;;;;21.99;56.19;100301.88;5064303;28;20420;-64
2023/09/19 11:00:56;;;;;;;4.43;1.40;;;;;;;21.98;56.60;100301.03;5039990;28;20891;-64
2023/09/19 11:03:23;;;;;;;3.03;1.30;;;;;;;21.98;56.60;100303.91;5069413;28;20963;-64
2023/09/19 11:06:16;;;;;;;3.50;1.43;;;;;;;22.00;56.70;100298.59;5035125;28;20408;-64
2023/09/19 11:08:58;;;;;;;4.93;1.70;;;;;;;21.90;56.39;100290.75;5071605;28;20429;-64
2023/09/19 11:11:39;;;;;;;3.60;1.40;;;;;;;21.96;56.90;100292.00;5064210;28;20448;-65
2023/09/19 11:14:23;;;;;;;5.60;1.83;;;;;;;21.96;56.79;100282.53;5077286;28;20913;-64
2023/09/19 11:17:11;;;;;;;3.17;1.33;;;;;;;22.00;56.60;100287.09;5071182;28;20503;-64
2023/09/19 11:22:58;;;;;;;3.57;1.43;;;;;;;22.08;57.20;100283.00;5068549;28;20397;-64
2023/09/19 11:25:34;;;;;;;2.80;1.50;;;;;;;22.12;56.23;100272.34;5072619;28;20444;-64
2023/09/19 11:28:05;;;;;;;4.30;1.70;;;;;;;22.10;56.73;100269.06;5078010;28;20423;-64
2023/09/19 11:30:32;;;;;;;4.93;1.30;;;;;;;22.02;55.79;100260.81;5082062;28;20464;-64
2023/09/19 11:33:28;;;;;;;3.70;1.60;;;;;;;22.02;55.31;100261.63;5071116;28;20481;-65
2023/09/19 11:36:11;;;;;;;3.50;1.50;;;;;;;22.06;54.99;100262.47;5075808;28;20463;-64